Time;durP1;ratioP1;P1;durP2;ratioP2;P2;SDS_P1;SDS_P2;PMS_P1;PMS_P2;Temp;Humidity;BMP_temperature;BMP_pressure;BME280_temperature;BME280_humidity;BME280_pressure;Samples;Min_cycle;Max_cycle;Signal;HPM_P1;HPM_P2
2022/04/01 00:04:17;;;;;;;17.90;14.10;;;;;;;0.52;90.59;96785.85;220720;1273;22466;-76
2022/04/01 00:09:23;;;;;;;24.30;17.60;;;;;;;0.47;90.75;96784.25;220822;1274;22562;-75
2022/04/01 00:14:28;;;;;;;23.90;17.30;;;;;;;0.45;90.78;96785.69;220999;1273;22567;-75
2022/04/01 00:19:32;;;;;;;31.50;21.40;;;;;;;0.44;90.62;96784.10;220927;1273;23259;-76
2022/04/01 00:24:35;;;;;;;25.80;18.20;;;;;;;0.46;90.75;96781.14;220676;1273;25968;-75
2022/04/01 00:29:37;;;;;;;26.70;16.80;;;;;;;0.47;90.99;96779.50;220972;1273;25365;-76
2022/04/01 00:34:40;;;;;;;22.20;14.70;;;;;;;0.43;90.68;96778.63;220796;1274;22710;-75
2022/04/01 00:39:42;;;;;;;26.70;18.00;;;;;;;0.40;90.73;96774.16;221042;1273;22600;-75
2022/04/01 00:44:45;;;;;;;26.30;16.90;;;;;;;0.38;91.11;96773.23;221009;1273;23529;-75
2022/04/01 00:49:56;;;;;;;29.60;19.30;;;;;;;0.38;90.93;96766.64;220990;1273;22660;-75
2022/04/01 00:54:59;;;;;;;26.70;16.40;;;;;;;0.38;90.88;96767.48;220944;1273;23147;-75
2022/04/01 01:00:06;;;;;;;24.70;16.50;;;;;;;0.39;90.79;96761.05;220725;1273;22579;-75
2022/04/01 01:05:13;;;;;;;20.10;14.90;;;;;;;0.37;90.91;96757.02;220916;1273;22580;-77
2022/04/01 01:10:18;;;;;;;21.80;14.70;;;;;;;0.35;90.75;96755.23;220955;1273;22610;-75
2022/04/01 01:15:24;;;;;;;21.00;14.50;;;;;;;0.37;91.09;96755.59;220892;1273;22590;-75
2022/04/01 01:20:27;;;;;;;23.30;16.20;;;;;;;0.36;90.83;96746.95;221122;1273;25373;-76
2022/04/01 01:25:34;;;;;;;17.70;13.20;;;;;;;0.35;91.24;96742.37;221113;1273;23784;-76
2022/04/01 01:30:37;;;;;;;20.00;14.70;;;;;;;0.34;91.08;96746.85;221127;1273;22551;-75
2022/04/01 01:35:41;;;;;;;23.50;15.70;;;;;;;0.35;91.01;96749.59;220931;1273;23872;-76
2022/04/01 01:40:53;;;;;;;26.60;18.00;;;;;;;0.36;91.16;96746.20;221021;1273;25254;-76
2022/04/01 01:46:20;;;;;;;24.60;16.30;;;;;;;0.38;91.24;96744.58;221052;1273;24227;-76
2022/04/01 01:56:58;;;;;;;26.20;18.10;;;;;;;0.39;91.01;96732.80;221088;1273;22768;-76
2022/04/01 02:02:05;;;;;;;23.60;16.60;;;;;;;0.38;90.95;96733.61;220977;1273;22606;-75
2022/04/01 02:07:09;;;;;;;29.70;18.90;;;;;;;0.33;91.09;96730.94;220869;1276;22680;-75
2022/04/01 02:12:12;;;;;;;23.20;15.30;;;;;;;0.32;91.08;96727.89;221165;1273;22669;-76
2022/04/01 02:17:17;;;;;;;22.40;15.90;;;;;;;0.31;91.10;96722.91;220752;1273;22470;-76
2022/04/01 02:22:36;;;;;;;38.00;25.10;;;;;;;0.32;91.37;96724.85;221202;1273;22566;-75
2022/04/01 02:27:38;;;;;;;39.60;24.90;;;;;;;0.33;91.19;96723.46;221103;1271;22491;-76
2022/04/01 02:32:42;;;;;;;34.60;23.20;;;;;;;0.33;91.35;96723.84;221022;1273;23971;-76
2022/04/01 02:38:02;;;;;;;29.70;20.80;;;;;;;0.30;90.96;96722.42;220828;1273;22563;-76
2022/04/01 02:43:22;;;;;;;31.40;21.50;;;;;;;0.26;91.26;96717.76;220745;1276;22836;-75
2022/04/01 02:48:24;;;;;;;27.10;20.10;;;;;;;0.25;91.42;96715.57;221058;1274;24179;-75
2022/04/01 02:53:45;;;;;;;29.40;21.00;;;;;;;0.22;91.56;96714.63;221211;1273;24232;-76
2022/04/01 02:58:48;;;;;;;28.20;21.50;;;;;;;0.21;91.57;96709.36;220812;1274;23924;-75
2022/04/01 03:03:53;;;;;;;30.40;22.00;;;;;;;0.21;91.71;96710.21;220931;1271;22609;-74
2022/04/01 03:08:57;;;;;;;22.40;17.30;;;;;;;0.21;91.54;96702.94;221108;1273;25189;-76
2022/04/01 03:14:00;;;;;;;30.30;20.70;;;;;;;0.17;91.40;96700.17;221094;1273;24196;-76
2022/04/01 03:19:28;;;;;;;24.90;18.70;;;;;;;0.14;91.35;96708.23;221113;1273;22549;-76
2022/04/01 03:24:31;;;;;;;32.40;23.70;;;;;;;0.13;91.64;96712.93;220875;1273;24127;-76
2022/04/01 03:29:36;;;;;;;28.40;21.40;;;;;;;0.12;91.52;96722.84;221049;1273;24290;-76
2022/04/01 03:34:45;;;;;;;27.70;21.40;;;;;;;0.10;91.49;96725.42;221004;1273;23072;-76
2022/04/01 03:39:50;;;;;;;31.30;22.30;;;;;;;0.13;91.72;96728.94;221158;1273;22598;-75
2022/04/01 03:44:53;;;;;;;30.70;21.20;;;;;;;0.14;91.98;96727.99;221354;1273;24364;-76
2022/04/01 03:50:28;;;;;;;24.50;18.60;;;;;;;0.15;91.77;96731.67;221255;1273;25374;-76
2022/04/01 03:55:38;;;;;;;23.10;16.50;;;;;;;0.14;91.72;96721.35;221224;1273;24253;-75
2022/04/01 04:01:13;;;;;;;24.10;17.40;;;;;;;0.12;91.71;96721.05;220842;1273;25960;-76
2022/04/01 04:06:19;;;;;;;22.30;17.00;;;;;;;0.10;91.76;96714.73;220730;1274;25380;-76
2022/04/01 04:11:29;;;;;;;25.70;17.10;;;;;;;0.08;91.62;96716.17;221158;1273;22582;-76
2022/04/01 04:16:56;;;;;;;26.90;19.50;;;;;;;0.05;91.70;96720.39;221187;1273;22552;-77
2022/04/01 04:22:09;;;;;;;18.90;14.50;;;;;;;0.03;91.88;96722.29;220914;1273;23803;-76
2022/04/01 04:27:17;;;;;;;25.20;18.30;;;;;;;0.04;92.29;96720.39;221322;1273;22577;-77
2022/04/01 04:32:33;;;;;;;22.40;15.80;;;;;;;0.04;92.13;96731.60;221146;1273;25249;-76
2022/04/01 04:37:45;;;;;;;22.70;17.00;;;;;;;0.04;92.05;96731.98;221143;1274;22555;-76
2022/04/01 04:42:53;;;;;;;23.70;17.10;;;;;;;0.05;92.08;96736.77;221231;1273;25207;-76
2022/04/01 04:47:57;;;;;;;24.90;18.40;;;;;;;0.06;92.08;96745.36;221128;1273;23983;-76
2022/04/01 04:53:04;;;;;;;30.20;21.50;;;;;;;0.07;92.26;96742.23;221158;1273;25361;-77
2022/04/01 04:58:20;;;;;;;19.40;15.90;;;;;;;0.11;92.23;96740.80;221082;1271;25405;-76
2022/04/01 05:03:37;;;;;;;27.50;20.20;;;;;;;0.11;91.90;96744.33;221046;1273;22476;-78
2022/04/01 05:09:05;;;;;;;16.90;13.20;;;;;;;0.14;92.27;96740.89;221326;1273;23543;-77
2022/04/01 05:14:40;;;;;;;18.00;13.00;;;;;;;0.19;92.42;96729.91;221025;1273;22589;-77
2022/04/01 05:19:57;;;;;;;24.60;17.30;;;;;;;0.22;92.20;96734.48;221107;1273;23691;-76
2022/04/01 05:25:09;;;;;;;18.20;14.20;;;;;;;0.26;92.03;96740.89;220970;1273;22561;-76
2022/04/01 05:30:31;;;;;;;28.30;21.00;;;;;;;0.32;92.02;96746.44;220860;1273;22688;-77
2022/04/01 05:35:43;;;;;;;24.30;17.00;;;;;;;0.34;91.79;96750.55;221194;1273;22552;-77
2022/04/01 05:41:18;;;;;;;20.80;15.60;;;;;;;0.36;91.87;96753.48;221066;1273;22686;-77
2022/04/01 05:46:27;;;;;;;27.30;19.30;;;;;;;0.42;91.92;96754.45;221087;1274;25831;-77
2022/04/01 05:51:34;;;;;;;31.40;22.60;;;;;;;0.48;91.84;96750.79;221737;1273;23014;-76
2022/04/01 05:56:39;;;;;;;24.20;18.40;;;;;;;0.60;91.91;96756.83;221772;1273;22467;-77
2022/04/01 06:01:45;;;;;;;18.70;13.70;;;;;;;0.68;91.84;96757.25;221594;1273;25319;-77
2022/04/01 06:07:10;;;;;;;15.90;11.40;;;;;;;0.71;91.21;96759.72;221713;1273;22555;-76
2022/04/01 06:13:04;;;;;;;19.10;11.50;;;;;;;0.75;91.22;96763.33;222114;1273;24358;-77
2022/04/01 06:18:53;;;;;;;20.10;15.50;;;;;;;0.76;91.11;96758.77;221730;1273;22457;-76
2022/04/01 06:24:18;;;;;;;15.80;11.90;;;;;;;0.75;91.12;96760.95;221670;1273;22560;-77
2022/04/01 06:29:36;;;;;;;15.40;11.70;;;;;;;0.73;90.95;96766.24;221659;1273;22565;-77
2022/04/01 06:35:10;;;;;;;14.80;10.90;;;;;;;0.71;90.96;96761.08;221835;1273;22565;-77
2022/04/01 06:40:52;;;;;;;28.90;20.70;;;;;;;0.74;91.02;96755.85;221655;1273;23115;-75
2022/04/01 06:46:08;;;;;;;24.40;18.80;;;;;;;0.82;91.11;96760.01;222122;1273;22569;-77
2022/04/01 06:51:19;;;;;;;10.50;7.30;;;;;;;0.99;91.07;96761.27;221503;1274;22475;-75
2022/04/01 06:56:41;;;;;;;9.20;7.60;;;;;;;1.21;90.76;96759.41;222438;1273;22606;-75
2022/04/01 07:01:43;;;;;;;8.40;6.90;;;;;;;1.37;90.60;96768.86;222141;1273;22559;-74
2022/04/01 07:06:59;;;;;;;8.00;5.60;;;;;;;1.48;90.05;96771.61;222122;1273;22575;-74
2022/04/01 07:12:15;;;;;;;7.60;6.10;;;;;;;1.66;90.27;96768.48;222431;1273;22550;-75
2022/04/01 07:17:18;;;;;;;13.80;10.20;;;;;;;1.78;89.92;96763.61;222295;1273;24426;-75
2022/04/01 07:22:23;;;;;;;12.30;9.60;;;;;;;1.82;89.81;96776.41;221614;1272;22497;-76
2022/04/01 07:27:33;;;;;;;13.70;9.90;;;;;;;1.83;89.35;96782.64;221515;1273;489521;-75
2022/04/01 07:32:36;;;;;;;12.70;9.70;;;;;;;1.74;88.82;96779.80;221984;1273;22527;-75
2022/04/01 07:37:42;;;;;;;6.70;5.60;;;;;;;1.72;89.01;96780.27;221982;1273;25375;-74
2022/04/01 07:43:17;;;;;;;10.70;8.10;;;;;;;1.65;88.57;96779.11;221734;1273;22660;-74
2022/04/01 07:48:18;;;;;;;13.90;10.50;;;;;;;1.64;88.80;96775.16;221205;1273;22566;-75
2022/04/01 07:53:21;;;;;;;12.30;9.00;;;;;;;1.79;89.00;96779.61;221531;1273;22568;-74
2022/04/01 07:58:23;;;;;;;10.90;7.10;;;;;;;2.01;88.74;96786.20;221493;1273;24292;-75
2022/04/01 08:03:27;;;;;;;14.70;10.40;;;;;;;2.14;88.59;96790.43;221701;1273;22555;-75
2022/04/01 08:08:31;;;;;;;8.30;6.30;;;;;;;2.30;88.45;96791.40;221549;1273;25251;-76
2022/04/01 08:13:37;;;;;;;17.80;12.60;;;;;;;2.40;87.98;96799.10;221518;1273;22556;-76
2022/04/01 08:18:43;;;;;;;18.80;15.40;;;;;;;2.44;87.79;96796.09;221833;1272;22601;-75
2022/04/01 08:23:45;;;;;;;14.20;11.90;;;;;;;2.28;87.02;96801.27;221855;1273;22475;-76
2022/04/01 08:28:52;;;;;;;12.60;10.10;;;;;;;2.09;87.02;96806.27;222048;1273;22606;-78
2022/04/01 08:33:54;;;;;;;16.10;12.10;;;;;;;1.91;86.81;96814.65;221847;1273;24164;-80
2022/04/01 08:39:14;;;;;;;14.70;11.70;;;;;;;1.80;87.10;96820.37;222000;1273;22713;-76
2022/04/01 08:44:32;;;;;;;18.90;15.30;;;;;;;1.83;87.34;96824.92;221875;1273;25352;-76
2022/04/01 08:49:35;;;;;;;11.20;9.40;;;;;;;1.95;87.37;96820.11;221865;1273;22553;-75
2022/04/01 08:54:42;;;;;;;20.90;17.10;;;;;;;1.98;87.23;96816.70;221506;1273;22643;-75
2022/04/01 08:59:47;;;;;;;15.40;13.70;;;;;;;2.02;87.36;96825.27;221403;1273;23433;-74
2022/04/01 09:05:06;;;;;;;22.00;17.30;;;;;;;1.98;87.44;96826.63;221742;1273;22554;-74
2022/04/01 09:10:08;;;;;;;20.50;16.50;;;;;;;1.98;87.52;96835.50;221679;1273;22589;-74
2022/04/01 09:15:18;;;;;;;17.20;14.60;;;;;;;1.97;87.57;96832.34;221840;1273;23199;-74
2022/04/01 09:20:20;;;;;;;13.10;10.70;;;;;;;1.91;87.71;96830.77;221644;1273;23896;-75
2022/04/01 09:25:23;;;;;;;16.80;13.10;;;;;;;1.86;87.30;96837.78;221927;1273;24196;-75
2022/04/01 09:30:27;;;;;;;11.80;10.10;;;;;;;1.79;87.55;96838.06;222062;1273;22474;-74
2022/04/01 09:35:32;;;;;;;16.00;12.90;;;;;;;1.73;87.23;96840.81;222080;1273;24048;-75
2022/04/01 09:40:35;;;;;;;18.50;14.90;;;;;;;1.66;87.19;96845.04;221890;1273;24288;-76
2022/04/01 09:45:42;;;;;;;20.00;15.50;;;;;;;1.79;87.92;96843.28;221551;1273;23681;-75
2022/04/01 09:50:54;;;;;;;13.90;11.90;;;;;;;1.95;87.77;96840.70;221718;1273;24308;-74
2022/04/01 09:55:57;;;;;;;12.40;9.70;;;;;;;2.06;87.21;96840.02;221528;1273;22481;-75
2022/04/01 10:01:03;;;;;;;12.80;9.40;;;;;;;2.18;87.25;96832.48;221851;1273;22668;-75
2022/04/01 10:06:12;;;;;;;12.80;10.40;;;;;;;2.31;86.74;96831.98;221826;1273;22643;-74
2022/04/01 10:11:18;;;;;;;18.90;13.80;;;;;;;2.43;86.97;96840.20;221631;1273;22694;-73
2022/04/01 10:16:30;;;;;;;17.60;15.00;;;;;;;2.52;86.58;96846.00;220783;1273;22561;-74
2022/04/01 10:21:36;;;;;;;18.30;14.40;;;;;;;2.50;86.43;96849.46;221196;1274;22577;-71
2022/04/01 10:26:55;;;;;;;11.90;9.90;;;;;;;2.43;86.01;96859.11;221606;1273;22600;-73
2022/04/01 10:32:30;;;;;;;15.30;12.50;;;;;;;2.29;86.04;96857.36;221567;1274;22511;-73
2022/04/01 10:37:34;;;;;;;12.90;11.20;;;;;;;2.18;85.70;96865.20;221583;1273;22763;-73
2022/04/01 10:42:38;;;;;;;11.80;10.50;;;;;;;2.05;85.64;96857.41;221278;1273;22476;-72
2022/04/01 10:53:37;;;;;;;14.80;12.30;;;;;;;1.79;86.10;96872.17;221488;1273;23582;-71
2022/04/01 10:59:05;;;;;;;13.40;10.50;;;;;;;1.76;86.22;96872.73;221459;1273;22578;-72
2022/04/01 11:04:08;;;;;;;10.50;8.70;;;;;;;1.68;86.02;96871.20;221483;1273;22532;-72
2022/04/01 11:09:35;;;;;;;13.70;11.30;;;;;;;1.63;86.02;96871.04;221589;1273;23833;-75
2022/04/01 11:14:53;;;;;;;11.80;10.20;;;;;;;1.62;86.11;96876.27;221900;1273;22613;-74
2022/04/01 11:20:05;;;;;;;14.00;11.80;;;;;;;1.60;86.00;96880.66;222034;1273;22598;-74
2022/04/01 11:25:15;;;;;;;13.70;10.70;;;;;;;1.63;86.36;96875.05;221859;1273;24148;-73
2022/04/01 11:30:24;;;;;;;13.10;11.40;;;;;;;1.61;85.89;96874.12;221439;1274;25332;-74
2022/04/01 11:35:40;;;;;;;19.30;13.60;;;;;;;1.58;86.18;96870.55;221681;1273;22553;-72
2022/04/01 11:40:47;;;;;;;14.70;12.30;;;;;;;1.56;85.89;96874.95;222118;1273;24169;-72
2022/04/01 11:46:03;;;;;;;14.50;11.30;;;;;;;1.55;86.06;96871.21;222129;1273;22564;-72
2022/04/01 11:51:16;;;;;;;17.90;13.60;;;;;;;1.55;86.04;96873.48;221495;1274;22580;-70
2022/04/01 11:56:28;;;;;;;14.40;10.20;;;;;;;1.60;86.31;96874.02;222701;1273;24060;-71
2022/04/01 12:01:33;;;;;;;10.90;9.70;;;;;;;1.51;85.75;96879.95;222124;1273;22551;-71
2022/04/01 12:12:31;;;;;;;11.50;8.90;;;;;;;1.31;85.81;96880.40;222205;1273;25368;-72
2022/04/01 12:17:56;;;;;;;13.80;10.90;;;;;;;1.14;85.37;96884.16;221959;1273;22715;-73
2022/04/01 12:23:00;;;;;;;;;;;;;;;1.04;85.49;96879.52;221731;1275;25347;-71
2022/04/01 12:28:11;;;;;;;13.30;10.50;;;;;;;1.03;86.16;96879.88;222141;1273;22636;-71
2022/04/01 12:33:28;;;;;;;18.50;14.70;;;;;;;1.10;86.14;96883.53;222026;1274;25373;-71
2022/04/01 12:38:36;;;;;;;13.80;10.60;;;;;;;1.12;86.00;96895.44;221927;1273;25944;-72
2022/04/01 12:43:47;;;;;;;18.10;13.60;;;;;;;1.09;85.74;96894.88;221913;1273;22887;-72
2022/04/01 12:48:52;;;;;;;14.10;10.40;;;;;;;1.11;85.97;96896.25;221561;1273;22611;-72
2022/04/01 12:54:06;;;;;;;12.70;10.30;;;;;;;1.13;85.74;96901.51;221651;1273;24325;-73
2022/04/01 12:59:14;;;;;;;15.20;11.70;;;;;;;1.02;85.46;96905.95;221935;1273;25379;-71
2022/04/01 13:04:20;;;;;;;18.00;14.20;;;;;;;0.96;85.32;96905.92;221711;1273;22580;-72
2022/04/01 13:09:24;;;;;;;12.60;10.30;;;;;;;0.93;85.64;96910.75;221775;1274;22591;-72
2022/04/01 13:14:29;;;;;;;11.10;8.60;;;;;;;0.86;85.05;96904.34;221993;1273;25330;-71
2022/04/01 13:19:33;;;;;;;14.00;10.50;;;;;;;0.80;85.26;96904.73;221711;1274;22540;-72
2022/04/01 13:24:49;;;;;;;15.40;11.60;;;;;;;0.84;85.84;96906.83;221947;1273;22584;-71
2022/04/01 13:29:58;;;;;;;15.70;12.60;;;;;;;0.93;85.82;96915.50;222139;1273;22569;-72
2022/04/01 13:35:07;;;;;;;11.60;9.40;;;;;;;1.04;85.77;96915.79;221676;1274;24961;-73
2022/04/01 13:40:11;;;;;;;17.60;13.00;;;;;;;1.09;85.40;96911.08;222083;1274;22561;-73
2022/04/01 13:45:23;;;;;;;15.20;11.60;;;;;;;1.07;85.70;96916.41;221618;1274;24366;-73
2022/04/01 13:50:26;;;;;;;12.20;9.90;;;;;;;1.02;85.57;96917.12;221906;1273;22600;-72
2022/04/01 13:55:37;;;;;;;14.30;10.00;;;;;;;0.98;85.58;96907.43;222223;1273;25222;-74
2022/04/01 14:00:43;;;;;;;15.40;10.70;;;;;;;1.00;85.58;96912.02;222073;1273;22529;-74
2022/04/01 14:05:48;;;;;;;16.60;12.40;;;;;;;1.15;85.77;96919.33;221081;1274;22545;-74
2022/04/01 14:10:55;;;;;;;16.80;12.40;;;;;;;1.34;86.01;96922.39;221369;1274;23794;-74
2022/04/01 14:16:03;;;;;;;17.20;14.10;;;;;;;1.35;85.27;96921.90;221189;1274;24265;-74
2022/04/01 14:21:06;;;;;;;13.70;10.80;;;;;;;1.25;84.79;96926.28;221069;1274;22588;-75
2022/04/01 14:26:10;;;;;;;17.70;13.30;;;;;;;1.18;85.17;96919.89;221162;1274;25393;-75
2022/04/01 14:31:14;;;;;;;23.80;17.30;;;;;;;1.26;85.36;96926.86;221076;1274;24623;-74
2022/04/01 14:36:16;;;;;;;14.30;11.10;;;;;;;1.31;85.22;96938.75;221134;1274;23543;-75
2022/04/01 14:41:19;;;;;;;15.70;11.30;;;;;;;1.19;85.14;96937.50;220813;1274;24266;-74
2022/04/01 14:46:21;;;;;;;18.90;13.50;;;;;;;1.08;84.89;96936.66;220837;1274;22724;-74
2022/04/01 14:51:24;;;;;;;19.30;14.40;;;;;;;1.08;85.25;96943.46;221144;1273;22531;-74
2022/04/01 14:56:35;;;;;;;19.60;13.80;;;;;;;1.11;85.38;96948.63;220841;1274;22538;-74
2022/04/01 15:01:49;;;;;;;27.50;20.30;;;;;;;1.17;85.32;96955.77;221076;1274;24272;-74
2022/04/01 15:06:51;;;;;;;12.70;10.00;;;;;;;1.16;85.40;96956.98;221318;1273;23025;-75
2022/04/01 15:12:00;;;;;;;24.40;16.10;;;;;;;1.09;85.25;96966.83;220980;1274;22568;-74
2022/04/01 15:17:04;;;;;;;19.80;13.20;;;;;;;1.00;85.01;96971.66;221360;1274;22538;-74
2022/04/01 15:22:07;;;;;;;22.60;15.10;;;;;;;0.88;85.02;96972.19;221259;1272;22488;-74
2022/04/01 15:27:10;;;;;;;21.00;14.70;;;;;;;0.84;85.45;96972.15;220876;1274;22562;-74
2022/04/01 15:32:16;;;;;;;23.00;14.80;;;;;;;0.79;85.11;96976.33;221276;1273;25328;-74
2022/04/01 15:37:37;;;;;;;13.30;9.40;;;;;;;0.70;85.11;96985.58;221231;1274;22620;-74
2022/04/01 15:42:47;;;;;;;;;;;;;;;0.53;85.13;96986.73;221173;1273;24429;-75
2022/04/01 15:47:50;;;;;;;;;;;;;;;0.40;85.17;96996.30;221159;1274;22838;-75
2022/04/01 15:52:57;;;;;;;18.40;12.90;;;;;;;0.32;85.37;96994.61;221378;1274;25380;-74
2022/04/01 15:58:03;;;;;;;24.60;17.30;;;;;;;0.32;85.61;96994.19;221580;1273;22783;-74
2022/04/01 16:03:10;;;;;;;15.00;10.80;;;;;;;0.33;85.77;97004.36;221137;1274;22485;-75
2022/04/01 16:08:19;;;;;;;18.50;13.20;;;;;;;0.31;85.86;97002.73;221414;1274;23029;-75
2022/04/01 16:13:47;;;;;;;18.80;13.30;;;;;;;0.25;85.94;97007.36;220610;1276;22558;-75
2022/04/01 16:18:56;;;;;;;18.10;12.30;;;;;;;0.16;86.02;97015.48;221054;1274;22691;-74
2022/04/01 16:24:01;;;;;;;22.40;15.60;;;;;;;0.12;86.12;97021.00;220755;1276;22730;-74
2022/04/01 16:29:04;;;;;;;21.80;15.00;;;;;;;0.07;85.92;97027.48;220967;1274;22612;-75
2022/04/01 16:34:09;;;;;;;19.60;13.90;;;;;;;-0.02;86.28;97031.85;221271;1274;22576;-74
2022/04/01 16:39:47;;;;;;;15.60;11.70;;;;;;;-0.07;86.43;97034.70;220299;1277;22695;-74
2022/04/01 16:44:56;;;;;;;23.90;16.50;;;;;;;-0.11;86.41;97039.21;220141;1279;23108;-74
2022/04/01 16:49:58;;;;;;;19.20;13.60;;;;;;;-0.13;86.87;97037.26;220285;1278;22726;-74
2022/04/01 16:55:02;;;;;;;29.60;19.90;;;;;;;-0.14;86.89;97041.00;219900;1281;22591;-75
2022/04/01 17:00:11;;;;;;;18.60;13.80;;;;;;;-0.16;86.93;97041.71;220511;1277;22768;-74
2022/04/01 17:05:14;;;;;;;26.90;18.60;;;;;;;-0.22;87.16;97046.94;221131;1274;22666;-74
2022/04/01 17:15:40;;;;;;;22.40;16.00;;;;;;;-0.25;87.32;97059.77;221224;1274;24897;-75
2022/04/01 17:20:43;;;;;;;24.40;16.50;;;;;;;-0.28;87.36;97063.77;221069;1274;22764;-74
2022/04/01 17:25:45;;;;;;;26.20;17.10;;;;;;;-0.28;87.58;97065.23;221086;1274;22818;-74
2022/04/01 17:30:50;;;;;;;29.00;19.50;;;;;;;-0.27;87.48;97074.02;221104;1274;22586;-74
2022/04/01 17:36:08;;;;;;;24.80;18.00;;;;;;;-0.27;87.53;97077.50;221348;1274;22781;-75
2022/04/01 17:41:16;;;;;;;30.70;19.60;;;;;;;-0.29;87.45;97087.86;220679;1275;23322;-74
2022/04/01 17:46:19;;;;;;;28.00;19.70;;;;;;;-0.30;87.78;97094.23;220892;1274;23952;-74
2022/04/01 17:51:36;;;;;;;30.70;20.60;;;;;;;-0.31;87.57;97095.70;220894;1274;23429;-75
2022/04/01 17:57:12;;;;;;;28.00;19.30;;;;;;;-0.31;87.45;97103.75;220972;1274;22453;-76
2022/04/01 18:02:17;;;;;;;27.10;19.00;;;;;;;-0.32;87.61;97109.86;221373;1274;22469;-75
2022/04/01 18:07:22;;;;;;;27.60;19.10;;;;;;;-0.34;87.80;97113.67;220991;1274;23105;-75
2022/04/01 18:12:36;;;;;;;30.10;20.30;;;;;;;-0.34;87.73;97117.00;220912;1274;22535;-74
2022/04/01 18:17:57;;;;;;;29.10;19.90;;;;;;;-0.33;87.89;97117.85;220926;1274;24237;-74
2022/04/01 18:23:16;;;;;;;30.90;20.10;;;;;;;-0.33;87.91;97127.05;221034;1274;24172;-74
2022/04/01 18:28:23;;;;;;;29.10;19.70;;;;;;;-0.31;87.90;97137.01;220808;1274;24388;-75
2022/04/01 18:33:37;;;;;;;26.70;18.30;;;;;;;-0.31;87.79;97144.52;221037;1274;24346;-75
2022/04/01 18:38:42;;;;;;;25.90;17.90;;;;;;;-0.31;87.94;97145.44;220702;1276;24359;-75
2022/04/01 18:43:58;;;;;;;29.40;18.30;;;;;;;-0.35;87.81;97145.00;220830;1276;25381;-76
2022/04/01 18:49:03;;;;;;;20.10;14.90;;;;;;;-0.37;87.86;97149.10;220429;1276;23850;-74
2022/04/01 18:54:06;;;;;;;28.30;18.60;;;;;;;-0.40;87.83;97149.98;221002;1275;24337;-74
2022/04/01 18:59:15;;;;;;;33.80;21.80;;;;;;;-0.42;87.75;97149.70;220933;1274;22598;-75
2022/04/01 19:04:30;;;;;;;34.30;21.10;;;;;;;-0.42;87.98;97149.80;220952;1274;22649;-74
2022/04/01 19:09:52;;;;;;;33.40;19.50;;;;;;;-0.41;88.10;97152.70;220831;1274;22554;-75
2022/04/01 19:14:58;;;;;;;28.00;19.20;;;;;;;-0.39;88.24;97153.92;221152;1274;25924;-75
2022/04/01 19:20:09;;;;;;;23.00;15.90;;;;;;;-0.40;88.29;97162.09;221332;1274;23851;-74
2022/04/01 19:25:16;;;;;;;28.20;18.90;;;;;;;-0.42;88.03;97157.77;220591;1274;579901;-74
2022/04/01 19:30:21;;;;;;;33.70;20.20;;;;;;;-0.44;88.11;97159.64;220675;1276;22538;-75
2022/04/01 19:35:53;;;;;;;23.90;16.50;;;;;;;-0.42;88.28;97165.91;220677;1275;22654;-75
2022/04/01 19:41:03;;;;;;;19.50;13.90;;;;;;;-0.40;88.20;97165.13;221128;1274;25195;-74
2022/04/01 19:46:09;;;;;;;21.90;15.30;;;;;;;-0.41;88.33;97174.06;221045;1274;22554;-74
2022/04/01 19:51:12;;;;;;;24.20;16.40;;;;;;;-0.44;88.23;97170.00;220831;1274;22559;-75
2022/04/01 19:56:19;;;;;;;21.50;15.30;;;;;;;-0.44;88.19;97171.11;220738;1274;25358;-74
2022/04/01 20:01:25;;;;;;;20.90;14.80;;;;;;;-0.44;88.16;97165.42;221080;1274;22678;-75
2022/04/01 20:06:30;;;;;;;21.20;15.40;;;;;;;-0.43;88.13;97163.01;220924;1274;23978;-74
2022/04/01 20:11:36;;;;;;;24.90;15.70;;;;;;;-0.41;88.03;97170.06;221023;1274;23850;-76
2022/04/01 20:16:39;;;;;;;19.10;13.10;;;;;;;-0.40;87.81;97173.60;221360;1274;25463;-74
2022/04/01 20:21:44;;;;;;;20.90;14.80;;;;;;;-0.39;87.86;97167.55;221043;1274;22545;-75
2022/04/01 20:26:48;;;;;;;21.70;14.70;;;;;;;-0.36;87.69;97172.55;221127;1274;24337;-77
2022/04/01 20:31:53;;;;;;;21.20;15.10;;;;;;;-0.37;87.53;97171.36;220900;1276;22499;-76
2022/04/01 20:37:05;;;;;;;19.00;12.70;;;;;;;-0.37;87.61;97177.66;221255;1274;22567;-76
2022/04/01 20:42:12;;;;;;;20.70;13.80;;;;;;;-0.38;87.79;97170.66;221021;1274;22529;-76
2022/04/01 20:47:15;;;;;;;19.10;13.50;;;;;;;-0.38;87.60;97177.04;221021;1274;22904;-74
2022/04/01 20:52:17;;;;;;;15.30;10.90;;;;;;;-0.39;87.43;97174.09;220727;1273;22908;-75
2022/04/01 20:57:23;;;;;;;18.20;12.50;;;;;;;-0.40;87.45;97178.98;220905;1276;22534;-75
2022/04/01 21:02:34;;;;;;;15.90;12.50;;;;;;;-0.40;87.26;97184.55;220919;1275;23863;-76
2022/04/01 21:07:38;;;;;;;18.30;13.20;;;;;;;-0.39;86.94;97182.30;221040;1275;24313;-75
2022/04/01 21:12:43;;;;;;;16.90;11.50;;;;;;;-0.37;87.18;97186.20;220695;1274;22606;-76
2022/04/01 21:18:07;;;;;;;13.70;10.60;;;;;;;-0.36;87.03;97202.71;221085;1274;25325;-75
2022/04/01 21:23:12;;;;;;;18.80;12.70;;;;;;;-0.37;86.55;97199.92;220863;1274;22563;-75
2022/04/01 21:28:19;;;;;;;15.90;11.60;;;;;;;-0.38;86.64;97201.98;220954;1274;22524;-75
2022/04/01 21:33:21;;;;;;;13.40;9.30;;;;;;;-0.40;86.31;97199.75;221187;1272;22592;-75
2022/04/01 21:38:25;;;;;;;19.70;12.90;;;;;;;-0.42;86.28;97206.16;221051;1274;25368;-75
2022/04/01 21:43:30;;;;;;;17.80;12.90;;;;;;;-0.43;86.61;97199.85;220716;1274;22637;-75
2022/04/01 21:48:33;;;;;;;17.70;12.30;;;;;;;-0.41;86.43;97201.86;220979;1274;25196;-76
2022/04/01 21:53:35;;;;;;;15.00;11.40;;;;;;;-0.40;86.26;97205.64;221026;1274;23802;-74
2022/04/01 21:58:38;;;;;;;19.50;13.00;;;;;;;-0.41;86.12;97202.33;221185;1272;22847;-76
2022/04/01 22:03:45;;;;;;;14.70;10.90;;;;;;;-0.42;86.13;97194.42;220778;1276;23357;-74
2022/04/01 22:08:47;;;;;;;15.90;11.60;;;;;;;-0.42;86.01;97198.80;221142;1274;22734;-75
2022/04/01 22:13:50;;;;;;;14.10;10.40;;;;;;;-0.43;85.77;97200.21;221050;1274;22620;-76
2022/04/01 22:18:53;;;;;;;18.50;13.20;;;;;;;-0.43;85.96;97201.64;221077;1274;23426;-74
2022/04/01 22:23:57;;;;;;;18.30;12.80;;;;;;;-0.43;86.12;97198.39;220984;1276;22542;-74
2022/04/01 22:29:00;;;;;;;18.20;13.00;;;;;;;-0.40;86.07;97203.23;220964;1274;24362;-74
2022/04/01 22:34:02;;;;;;;17.90;12.10;;;;;;;-0.41;85.82;97202.13;220870;1276;22494;-75
2022/04/01 22:39:05;;;;;;;18.20;12.20;;;;;;;-0.41;85.79;97199.44;220996;1274;24234;-75
2022/04/01 22:44:08;;;;;;;17.40;11.80;;;;;;;-0.41;85.71;97198.96;221111;1274;22470;-75
2022/04/01 22:49:12;;;;;;;20.40;12.60;;;;;;;-0.43;85.65;97196.33;220981;1274;23321;-74
2022/04/01 22:54:15;;;;;;;21.90;15.00;;;;;;;-0.44;85.62;97195.11;221086;1274;22478;-75
2022/04/01 22:59:18;;;;;;;20.00;13.60;;;;;;;-0.43;85.66;97190.36;221204;1274;22571;-74
2022/04/01 23:04:20;;;;;;;18.20;13.10;;;;;;;-0.42;85.59;97192.47;220956;1274;22541;-74
2022/04/01 23:09:24;;;;;;;14.60;10.70;;;;;;;-0.42;85.35;97189.43;220985;1276;22528;-75
2022/04/01 23:14:27;;;;;;;16.30;11.80;;;;;;;-0.41;85.56;97195.54;221008;1274;23926;-74
2022/04/01 23:19:31;;;;;;;19.00;12.70;;;;;;;-0.42;85.64;97191.85;221048;1275;22540;-75
2022/04/01 23:24:33;;;;;;;18.60;12.30;;;;;;;-0.43;85.38;97190.01;221105;1274;22585;-75
2022/04/01 23:29:36;;;;;;;16.70;12.30;;;;;;;-0.42;85.45;97190.64;220902;1274;25893;-74
2022/04/01 23:34:39;;;;;;;16.80;12.70;;;;;;;-0.42;85.35;97183.85;220962;1276;22603;-74
2022/04/01 23:39:44;;;;;;;16.70;11.90;;;;;;;-0.42;85.40;97187.54;220872;1274;22661;-75
2022/04/01 23:44:48;;;;;;;13.90;10.30;;;;;;;-0.43;85.66;97186.42;221034;1274;22557;-75
2022/04/01 23:50:01;;;;;;;14.40;9.70;;;;;;;-0.45;85.44;97178.84;221107;1274;25498;-75
2022/04/01 23:55:04;;;;;;;15.80;11.20;;;;;;;-0.45;85.61;97181.67;221189;1274;22549;-76
